Terminal Aerodrome Forecast
Issued by NWS Des Moines, IA

Home | Current Version | Previous Version | Text Only | Print | Product List | Glossary On
Versions: 1 2 3 4 5 6 7 8 9 10 11 12 13 14 15 16 17 18 19 20 21 22 23 24 25 26 27 28 29 30 31 32 33 34
000
FTUS43 KDMX 301740
TAFALO
TAF
KALO 301740Z 3018/0118 12011KT P6SM OVC015
     FM302000 12012KT P6SM SCT020 BKN250
     FM010900 13011KT P6SM VCSH SCT015 BKN040
     FM011200 15010KT 6SM -SHRA BR BKN022=

USA.gov is the U.S. government's official web portal to all federal, state and local government web resources and services.